»·PEaware :: N112VV KMSO-KMSO

N112VV :: KMSO-KMSO

FLIGHT INFORMATION

Flight Status: Arrived
Operator: Privately registered:
United States
More flights under this callsign
Pilot: Anonymous 27337 (27337)
Aircraft: Unknown
(N102)
More flights by this aircraft type
Origin: KMSO Missoula Intl
United States
Destination: KMSO Missoula Intl
United States
More flights between these airports :: More routes between these airports
Route: GRZLY3 MSO
File this flight plan on PilotEdge
Remarks:
Altitude:
(Current/Filed)
10,000ft
Speed:
(Current/Filed)
165kts
Departed: 23-Nov-21 02:31 PM
Arrived: 23-Nov-21 03:12 PM
Distance/Time
Traveled:
0nm/0:41
Distance/Time
To Go:
Arrived

Flight Plot

Page will automatically refresh every two minutes.

Flight plan parsing failed; only flown route is shown


Map Options




Map Legend


Flown Route
Filed Route
Departure Airport
Arrival Airport
Navaid (VOR, NDB)
Fix

Horizontal Profiles

Position Reports

Time Latitude Longitude Heading Altitude Ground
Speed
23-Nov-21 14:13 46.914183 -114.080733 0 3201ft 0kts
23-Nov-21 14:14 46.914183 -114.080733 269 3201ft 0kts
23-Nov-21 14:15 46.914183 -114.080733 269 3201ft 0kts
23-Nov-21 14:16 46.914183 -114.080733 269 3201ft 0kts
23-Nov-21 14:17 46.914194 -114.080821 292 3201ft 3kts
23-Nov-21 14:18 46.915117 -114.082053 226 3202ft 7kts
23-Nov-21 14:19 46.914372 -114.085025 310 3199ft 8kts
23-Nov-21 14:20 46.915571 -114.086990 317 3199ft 3kts
23-Nov-21 14:21 46.917586 -114.090448 309 3199ft 13kts
23-Nov-21 14:22 46.919575 -114.093867 313 3196ft 11kts
23-Nov-21 14:23 46.920567 -114.095576 311 3194ft 12kts
23-Nov-21 14:24 46.922722 -114.099284 309 3189ft 12kts
23-Nov-21 14:25 46.924596 -114.102453 309 3191ft 11kts
23-Nov-21 14:26 46.925716 -114.104504 288 3195ft 3kts
23-Nov-21 14:27 46.925659 -114.105407 211 3196ft 0kts
23-Nov-21 14:28 46.925573 -114.105505 219 3196ft 0kts
23-Nov-21 14:29 46.925552 -114.105529 212 3196ft 1kts
23-Nov-21 14:30 46.919435 -114.097524 130 3273ft 106kts
23-Nov-21 14:31 46.895185 -114.076134 201 4309ft 135kts
23-Nov-21 14:32 46.861542 -114.071507 175 5647ft 132kts
23-Nov-21 14:33 46.828793 -114.066782 174 6755ft 131kts
23-Nov-21 14:34 46.805827 -114.062319 173 7500ft 129kts
23-Nov-21 14:35 46.784296 -114.049970 123 8195ft 132kts
23-Nov-21 14:36 46.787913 -114.016806 31 8712ft 137kts
23-Nov-21 14:37 46.805930 -114.030953 298 9415ft 113kts
23-Nov-21 14:38 46.820304 -114.055032 326 10049ft 121kts
23-Nov-21 14:39 46.844150 -114.066106 345 10005ft 158kts
23-Nov-21 14:40 46.872773 -114.075299 349 9952ft 166kts
23-Nov-21 14:41 46.902661 -114.084956 330 9947ft 165kts
23-Nov-21 14:42 46.926696 -114.113923 310 9946ft 165kts
23-Nov-21 14:43 46.946871 -114.149888 309 9944ft 165kts
23-Nov-21 14:44 46.967283 -114.186314 309 9943ft 165kts
23-Nov-21 14:45 46.988800 -114.223779 310 9946ft 165kts
23-Nov-21 14:47 47.010417 -114.259875 311 9944ft 165kts
23-Nov-21 14:48 47.032527 -114.296521 311 9944ft 165kts
23-Nov-21 14:49 47.055131 -114.333971 311 9946ft 165kts
23-Nov-21 14:50 47.077908 -114.371723 311 9946ft 165kts
23-Nov-21 14:51 47.100540 -114.409200 311 9944ft 165kts
23-Nov-21 14:52 47.125656 -114.450781 311 9945ft 165kts
23-Nov-21 14:53 47.147783 -114.487398 311 9940ft 153kts
23-Nov-21 14:54 47.158825 -114.530423 283 9942ft 132kts
23-Nov-21 14:55 47.167675 -114.571201 322 9945ft 124kts
23-Nov-21 14:56 47.189102 -114.561232 65 9944ft 127kts
23-Nov-21 14:57 47.179856 -114.531502 137 9947ft 129kts
23-Nov-21 14:58 47.161744 -114.506773 135 9679ft 148kts
23-Nov-21 14:59 47.140714 -114.475822 133 8717ft 168kts
23-Nov-21 15:00 47.121348 -114.441770 129 8005ft 165kts
23-Nov-21 15:01 47.102345 -114.408368 131 7465ft 166kts
23-Nov-21 15:02 47.082813 -114.375780 131 6933ft 165kts
23-Nov-21 15:03 47.065162 -114.346603 132 7103ft 111kts
23-Nov-21 15:04 47.052780 -114.327261 134 6675ft 92kts
23-Nov-21 15:05 47.038870 -114.300939 135 6569ft 88kts
23-Nov-21 15:06 47.020936 -114.270885 129 6316ft 111kts
23-Nov-21 15:07 47.000746 -114.237117 130 5491ft 107kts
23-Nov-21 15:08 46.983027 -114.206053 130 5067ft 101kts
23-Nov-21 15:09 46.965134 -114.175414 129 4437ft 103kts
23-Nov-21 15:10 46.948212 -114.146359 128 3896ft 102kts
23-Nov-21 15:11 46.931508 -114.117556 133 3448ft 102kts
23-Nov-21 15:11 46.921511 -114.100894 132 3189ft 37kts
23-Nov-21 15:12 46.921617 -114.098507 53 3189ft 7kts
23-Nov-21 15:14 46.920804 -114.095872 123 3193ft 7kts
23-Nov-21 15:15 46.918741 -114.092461 129 3197ft 25kts
23-Nov-21 15:15 46.916729 -114.088905 128 3199ft 17kts
23-Nov-21 15:16 46.915756 -114.085633 19 3199ft 0kts

Navigation Log

Ident Type
Flight plan parsing failed, navigation log unavailable